createdAt,value
2022-11-10T00:00:50.275Z,68300.75
2022-11-10T00:03:37.964Z,68292.44
2022-11-10T00:06:23.944Z,68287.53
2022-11-10T00:09:10.692Z,68286.38
2022-11-10T00:11:57.082Z,68283.38
2022-11-10T00:15:01.515Z,68268.25
2022-11-10T00:18:00.324Z,68252.03
2022-11-10T00:20:47.806Z,68252.38
2022-11-10T00:23:34.425Z,68252.59
2022-11-10T00:26:31.970Z,68237.69
2022-11-10T00:29:18.061Z,68253.34
2022-11-10T00:32:04.143Z,68245.78
2022-11-10T00:34:50.287Z,68248.25
2022-11-10T00:37:36.126Z,68262.41
2022-11-10T00:40:22.081Z,68262.78
2022-11-10T00:43:07.861Z,68237.69
2022-11-10T00:45:54.251Z,68263.91
2022-11-10T00:48:40.303Z,68273.34
2022-11-10T00:51:29.220Z,68269.94
2022-11-10T00:54:15.452Z,68264.84
2022-11-10T00:57:01.280Z,68260.91
2022-11-10T00:59:47.256Z,68257.50
2022-11-10T01:02:33.045Z,68252.38
2022-11-10T01:05:19.211Z,68250.13
2022-11-10T01:08:05.556Z,68254.09
2022-11-10T01:10:51.227Z,68229.19
2022-11-10T01:13:37.495Z,68242.97
2022-11-10T01:16:31.843Z,68239.38
2022-11-10T01:19:17.714Z,68231.63
2022-11-10T01:22:03.633Z,68234.09
2022-11-10T01:24:49.631Z,68224.06
2022-11-10T01:27:35.691Z,68214.63
2022-11-10T01:30:21.593Z,68216.16
2022-11-10T01:33:07.585Z,68212.19
2022-11-10T01:35:53.765Z,68208.78
2022-11-10T01:38:42.236Z,68198.97
2022-11-10T01:41:28.957Z,68201.97
2022-11-10T01:44:24.289Z,68199.72
2022-11-10T01:47:10.540Z,68195.97
2022-11-10T01:49:56.940Z,68197.06
2022-11-10T01:52:46.658Z,68200.09
2022-11-10T01:55:34.567Z,68193.69
2022-11-10T01:58:28.283Z,68189.31
2022-11-10T02:01:15.049Z,68182.72
2022-11-10T02:04:05.162Z,68177.63
2022-11-10T02:06:51.972Z,68169.72
2022-11-10T02:09:37.983Z,68166.88
2022-11-10T02:12:44.730Z,68168.94
2022-11-10T02:15:30.867Z,68165.75
2022-11-10T02:18:16.956Z,68166.69
2022-11-10T02:21:09.828Z,68166.88
2022-11-10T02:23:55.975Z,68172.16
2022-11-10T02:26:48.681Z,68166.88
2022-11-10T02:29:34.499Z,68161.78
2022-11-10T02:32:20.300Z,68158.94
2022-11-10T02:35:07.229Z,68162.53
2022-11-10T02:37:53.386Z,68168.00
2022-11-10T02:40:39.558Z,68178.75
2022-11-10T02:43:25.922Z,68188.59
2022-11-10T02:46:12.068Z,68192.56
2022-11-10T02:48:58.198Z,68192.19
2022-11-10T02:51:44.249Z,68196.91
2022-11-10T02:54:32.345Z,68188.38
2022-11-10T02:57:18.484Z,68190.09
2022-11-10T03:00:06.327Z,68180.66
2022-11-10T03:03:01.477Z,68180.47
2022-11-10T03:05:47.421Z,68176.88
2022-11-10T03:08:33.536Z,68176.88
2022-11-10T03:11:20.736Z,68169.34
2022-11-10T03:14:06.894Z,68166.13
2022-11-10T03:16:52.968Z,68168.41
2022-11-10T03:19:38.880Z,68161.03
2022-11-10T03:22:25.007Z,68151.59
2022-11-10T03:25:12.197Z,68143.66
2022-11-10T03:27:58.231Z,68136.88
2022-11-10T03:30:44.376Z,68132.34
2022-11-10T03:33:33.271Z,68127.44
2022-11-10T03:36:20.483Z,68122.72
2022-11-10T03:39:10.632Z,68119.91
2022-11-10T03:41:56.625Z,68117.03
2022-11-10T03:44:44.839Z,68115.16
2022-11-10T03:47:30.776Z,68108.75
2022-11-10T03:50:17.897Z,68108.00
2022-11-10T03:53:06.129Z,68107.78
2022-11-10T03:55:53.548Z,68103.47
2022-11-10T03:58:39.577Z,68091.19
2022-11-10T04:01:25.623Z,68099.13
2022-11-10T04:04:31.296Z,68091.78
2022-11-10T04:07:35.966Z,68083.28
2022-11-10T04:10:21.859Z,68089.31
2022-11-10T04:13:26.203Z,68093.09
2022-11-10T04:16:13.043Z,68090.81
2022-11-10T04:18:59.350Z,68083.28
2022-11-10T04:21:45.543Z,68088.56
2022-11-10T04:24:32.024Z,68089.31
2022-11-10T04:27:18.865Z,68092.13
2022-11-10T04:30:06.730Z,68093.28
2022-11-10T04:32:54.173Z,68095.16
2022-11-10T04:35:40.997Z,68106.66
2022-11-10T04:38:27.639Z,68104.38
2022-11-10T04:41:31.929Z,68105.75
2022-11-10T04:44:18.335Z,68112.91
2022-11-10T04:47:09.037Z,68108.94
2022-11-10T04:49:58.782Z,68120.47
2022-11-10T04:52:44.533Z,68120.09
2022-11-10T04:55:30.772Z,68127.25
2022-11-10T04:58:18.723Z,68126.69
2022-11-10T05:01:05.825Z,68126.69
2022-11-10T05:03:52.210Z,68129.53
2022-11-10T05:06:39.871Z,68128.00
2022-11-10T05:09:25.774Z,68129.16
2022-11-10T05:12:11.681Z,68130.28
2022-11-10T05:14:57.708Z,68134.41
2022-11-10T05:17:43.788Z,68125.34
2022-11-10T05:20:30.327Z,68120.47
2022-11-10T05:23:35.077Z,68125.56
2022-11-10T05:26:20.884Z,68128.38
2022-11-10T05:29:06.605Z,68125.56
2022-11-10T05:31:53.527Z,68125.34
2022-11-10T05:34:39.462Z,68117.81
2022-11-10T05:37:26.985Z,68103.09
2022-11-10T05:40:12.882Z,68096.69
2022-11-10T05:43:00.793Z,68087.81
2022-11-10T05:45:46.866Z,68087.06
2022-11-10T05:48:33.636Z,68089.69
2022-11-10T05:51:19.417Z,68092.88
2022-11-10T05:54:05.673Z,68086.50
2022-11-10T05:56:51.809Z,68087.63
2022-11-10T05:59:37.895Z,68081.03
2022-11-10T06:02:23.791Z,68087.25
2022-11-10T06:05:10.490Z,68079.91
2022-11-10T06:07:57.280Z,68075.19
2022-11-10T06:10:43.064Z,68066.13
2022-11-10T06:13:29.455Z,68055.56
2022-11-10T06:16:15.579Z,68052.53
2022-11-10T06:19:02.047Z,68053.47
2022-11-10T06:21:48.289Z,68050.06
2022-11-10T06:24:34.172Z,68046.88
2022-11-10T06:27:20.480Z,68054.03
2022-11-10T06:30:07.113Z,68052.34
2022-11-10T06:32:53.559Z,68055.75
2022-11-10T06:35:39.725Z,68057.06
2022-11-10T06:38:25.373Z,68067.25
2022-11-10T06:41:11.628Z,68076.88
2022-11-10T06:43:57.822Z,68081.03
2022-11-10T06:46:44.402Z,68085.19
2022-11-10T06:49:30.398Z,68089.31
2022-11-10T06:52:16.790Z,68089.31
2022-11-10T06:55:02.951Z,68093.09
2022-11-10T06:57:48.943Z,68098.16
2022-11-10T07:00:35.247Z,68093.47
2022-11-10T07:03:21.512Z,68104.97
2022-11-10T07:06:08.146Z,68101.75
2022-11-10T07:08:54.028Z,68103.47
2022-11-10T07:11:40.170Z,68105.53
2022-11-10T07:14:25.955Z,68114.59
2022-11-10T07:17:11.909Z,68119.66
2022-11-10T07:19:58.130Z,68121.97
2022-11-10T07:22:44.118Z,68116.72
2022-11-10T07:25:33.058Z,68125.72
2022-11-10T07:28:18.973Z,68126.50
2022-11-10T07:31:05.201Z,68130.47
2022-11-10T07:33:54.517Z,68125.19
2022-11-10T07:36:40.807Z,68126.50
2022-11-10T07:39:26.741Z,68138.59
2022-11-10T07:42:12.621Z,68141.97
2022-11-10T07:44:58.554Z,68151.41
2022-11-10T07:47:45.020Z,68147.84
2022-11-10T07:50:31.119Z,68152.16
2022-11-10T07:53:22.922Z,68156.31
2022-11-10T07:56:09.760Z,68162.91
2022-11-10T07:58:55.752Z,68164.63
2022-11-10T08:01:41.913Z,68166.50
2022-11-10T08:04:29.266Z,68175.75
2022-11-10T08:07:15.040Z,68178.75
2022-11-10T08:10:00.798Z,68183.88
2022-11-10T08:12:46.475Z,68177.44
2022-11-10T08:15:34.375Z,68185.19
2022-11-10T08:18:23.334Z,68187.44
2022-11-10T08:21:09.534Z,68190.09
2022-11-10T08:23:55.412Z,68195.38
2022-11-10T08:26:41.215Z,68206.91
2022-11-10T08:29:27.438Z,68213.69
2022-11-10T08:32:13.489Z,68224.06
2022-11-10T08:34:59.648Z,68230.31
2022-11-10T08:37:45.629Z,68237.66
2022-11-10T08:40:31.406Z,68252.19
2022-11-10T08:43:18.527Z,68259.00
2022-11-10T08:46:04.362Z,68269.38
2022-11-10T08:48:50.567Z,68276.38
2022-11-10T08:51:39.207Z,68282.59
2022-11-10T08:54:26.932Z,68298.47
2022-11-10T08:57:12.944Z,68302.25
2022-11-10T08:59:59.242Z,68317.00
2022-11-10T09:02:44.936Z,68345.53
2022-11-10T09:05:35.999Z,68348.75
2022-11-10T09:08:21.816Z,68383.72
2022-11-10T09:11:08.072Z,68413.56
2022-11-10T09:13:53.914Z,68402.22
2022-11-10T09:16:39.806Z,68371.03
2022-11-10T09:19:26.180Z,68347.25
2022-11-10T09:22:12.407Z,68338.00
2022-11-10T09:24:59.075Z,68316.63
2022-11-10T09:27:45.256Z,68307.91
2022-11-10T09:30:32.451Z,68307.75
2022-11-10T09:33:18.453Z,68313.41
2022-11-10T09:36:04.723Z,68346.47
2022-11-10T09:38:50.462Z,68345.53
2022-11-10T09:41:41.031Z,68349.88
2022-11-10T09:44:39.982Z,68364.81
2022-11-10T09:47:56.679Z,68391.47
2022-11-10T09:50:52.858Z,68404.31
2022-11-10T09:53:48.036Z,68413.97
2022-11-10T09:56:38.595Z,68448.75
2022-11-10T09:59:32.417Z,68415.66
2022-11-10T10:02:33.917Z,68436.66
2022-11-10T10:05:46.711Z,68486.94
2022-11-10T10:08:57.752Z,68494.53
2022-11-10T10:11:50.433Z,68484.28
2022-11-10T10:15:03.015Z,68468.97
2022-11-10T10:17:53.460Z,68465.19
2022-11-10T10:20:39.767Z,68470.13
2022-11-10T10:24:08.627Z,68460.09
2022-11-10T10:26:58.073Z,68462.19
2022-11-10T10:29:46.028Z,68446.09
2022-11-10T10:32:32.761Z,68453.47
2022-11-10T10:35:19.451Z,68449.88
2022-11-10T10:38:13.180Z,68412.81
2022-11-10T10:41:10.735Z,68412.63
2022-11-10T10:43:59.595Z,68420.16
2022-11-10T10:46:50.457Z,68430.59
2022-11-10T10:49:39.227Z,68444.78
2022-11-10T10:52:26.863Z,68437.97
2022-11-10T10:55:14.409Z,68451.38
2022-11-10T10:58:06.228Z,68478.44
2022-11-10T11:00:56.623Z,68492.44
2022-11-10T11:03:42.706Z,68482.41
2022-11-10T11:06:33.923Z,68478.63
2022-11-10T11:09:27.953Z,68513.81
2022-11-10T11:12:27.647Z,68508.34
2022-11-10T11:15:28.490Z,68496.78
2022-11-10T11:18:17.945Z,68504.19
2022-11-10T11:21:33.908Z,68508.16
2022-11-10T11:24:34.402Z,68494.69
2022-11-10T11:27:41.618Z,68502.66
2022-11-10T11:30:58.170Z,68519.13
2022-11-10T11:34:10.123Z,68523.09
2022-11-10T11:37:11.147Z,68533.31
2022-11-10T11:40:23.683Z,68538.81
2022-11-10T11:43:20.625Z,68551.84
2022-11-10T11:46:18.817Z,68567.94
2022-11-10T11:49:35.611Z,68567.38
2022-11-10T11:52:39.198Z,68600.13
2022-11-10T11:55:44.334Z,68617.72
2022-11-10T11:58:42.047Z,68592.75
2022-11-10T12:01:37.300Z,68584.63
2022-11-10T12:04:42.248Z,68555.44
2022-11-10T12:07:45.314Z,68576.84
2022-11-10T12:10:46.279Z,68544.47
2022-11-10T12:14:05.129Z,68545.00
2022-11-10T12:17:06.386Z,68565.50
2022-11-10T12:20:26.619Z,68538.63
2022-11-10T12:23:31.160Z,68525.94
2022-11-10T12:26:23.402Z,68516.13
2022-11-10T12:29:30.691Z,68517.44
2022-11-10T12:32:28.519Z,68500.56
2022-11-10T12:35:26.326Z,68460.66
2022-11-10T12:38:17.802Z,68453.09
2022-11-10T12:41:18.635Z,68476.19
2022-11-10T12:44:32.472Z,68513.25
2022-11-10T12:47:21.224Z,68526.88
2022-11-10T12:50:16.678Z,68525.94
2022-11-10T12:53:37.228Z,68545.22
2022-11-10T12:56:39.599Z,68563.97
2022-11-10T12:59:30.395Z,68547.88
2022-11-10T13:02:16.452Z,68571.16
2022-11-10T13:05:41.080Z,68601.44
2022-11-10T13:08:30.286Z,68620.00
2022-11-10T13:11:16.202Z,68624.16
2022-11-10T13:14:22.182Z,68561.50
2022-11-10T13:17:09.706Z,68535.03
2022-11-10T13:20:09.414Z,68509.84
2022-11-10T13:23:30.350Z,68505.31
2022-11-10T13:26:44.507Z,68511.16
2022-11-10T13:29:42.805Z,68495.66
2022-11-10T13:32:35.405Z,68510.81
2022-11-10T13:35:30.718Z,68520.81
2022-11-10T13:38:44.498Z,68531.44
2022-11-10T13:41:34.912Z,68539.75
2022-11-10T13:44:25.569Z,68557.94
2022-11-10T13:47:39.463Z,68568.50
2022-11-10T13:50:41.727Z,68582.69
2022-11-10T13:53:35.366Z,68560.19
2022-11-10T13:56:21.105Z,68555.28
2022-11-10T13:59:22.944Z,68559.81
2022-11-10T14:02:34.235Z,68561.50
2022-11-10T14:05:29.710Z,68546.41
2022-11-10T14:08:23.804Z,68536.16
2022-11-10T14:11:18.755Z,68534.66
2022-11-10T14:14:22.071Z,68511.56
2022-11-10T14:17:29.683Z,68499.06
2022-11-10T14:20:27.565Z,68497.91
2022-11-10T14:23:31.826Z,68500.75
2022-11-10T14:26:38.867Z,68496.41
2022-11-10T14:29:32.304Z,68500.19
2022-11-10T14:32:22.371Z,68483.72
2022-11-10T14:35:20.030Z,68479.38
2022-11-10T14:38:17.929Z,68471.81
2022-11-10T14:41:07.585Z,68466.31
2022-11-10T14:44:06.156Z,68449.13
2022-11-10T14:46:52.908Z,68436.06
2022-11-10T14:49:39.305Z,68419.63
2022-11-10T14:52:25.502Z,68399.22
2022-11-10T14:55:21.854Z,68397.31
2022-11-10T14:58:16.235Z,68392.41
2022-11-10T15:01:07.244Z,68375.41
2022-11-10T15:03:53.929Z,68363.50
2022-11-10T15:06:45.819Z,68372.00
2022-11-10T15:09:33.355Z,68377.09
2022-11-10T15:12:22.935Z,68369.53
2022-11-10T15:15:20.338Z,68353.47
2022-11-10T15:18:24.113Z,68331.94
2022-11-10T15:21:12.683Z,68318.13
2022-11-10T15:24:02.690Z,68308.84
2022-11-10T15:26:48.684Z,68305.84
2022-11-10T15:29:34.718Z,68288.84
2022-11-10T15:32:23.630Z,68272.97
2022-11-10T15:35:31.294Z,68282.41
2022-11-10T15:38:20.928Z,68288.09
2022-11-10T15:41:13.368Z,68291.28
2022-11-10T15:44:21.104Z,68288.09
2022-11-10T15:47:12.527Z,68291.50
2022-11-10T15:50:00.407Z,68288.66
2022-11-10T15:52:46.450Z,68298.66
2022-11-10T15:55:34.595Z,68293.00
2022-11-10T15:58:22.766Z,68291.50
2022-11-10T16:01:13.237Z,68259.19
2022-11-10T16:03:59.531Z,68263.72
2022-11-10T16:06:46.044Z,68264.31
2022-11-10T16:09:31.842Z,68247.69
2022-11-10T16:12:21.085Z,68250.69
2022-11-10T16:15:17.133Z,68229.16
2022-11-10T16:18:03.228Z,68229.75
2022-11-10T16:20:51.264Z,68221.22
2022-11-10T16:23:37.430Z,68211.81
2022-11-10T16:26:26.307Z,68220.28
2022-11-10T16:29:15.559Z,68218.59
2022-11-10T16:32:02.023Z,68204.25
2022-11-10T16:34:47.631Z,68195.97
2022-11-10T16:37:35.069Z,68193.13
2022-11-10T16:40:24.272Z,68178.75
2022-11-10T16:43:18.081Z,68181.41
2022-11-10T16:46:13.850Z,68169.13
2022-11-10T16:49:01.646Z,68177.25
2022-11-10T16:51:49.258Z,68171.97
2022-11-10T16:54:35.242Z,68178.19
2022-11-10T16:57:21.550Z,68184.03
2022-11-10T17:00:08.238Z,68183.31
2022-11-10T17:03:07.713Z,68162.34
2022-11-10T17:05:54.409Z,68159.31
2022-11-10T17:08:42.012Z,68153.28
2022-11-10T17:11:27.911Z,68138.00
2022-11-10T17:14:14.516Z,68134.25
2022-11-10T17:17:00.270Z,68146.50
2022-11-10T17:19:48.781Z,68140.09
2022-11-10T17:22:36.654Z,68135.00
2022-11-10T17:25:28.753Z,68131.22
2022-11-10T17:28:18.077Z,68129.16
2022-11-10T17:31:04.564Z,68137.81
2022-11-10T17:33:50.558Z,68152.91
2022-11-10T17:36:36.996Z,68135.19
2022-11-10T17:39:23.317Z,68127.06
2022-11-10T17:42:13.727Z,68124.78
2022-11-10T17:45:00.081Z,68117.63
2022-11-10T17:47:47.078Z,68114.00
2022-11-10T17:50:33.981Z,68108.00
2022-11-10T17:53:28.357Z,68124.41
2022-11-10T17:56:14.384Z,68123.84
2022-11-10T17:59:00.580Z,68110.44
2022-11-10T18:01:46.629Z,68112.50
2022-11-10T18:04:32.399Z,68104.59
2022-11-10T18:07:18.483Z,68122.72
2022-11-10T18:10:05.053Z,68112.50
2022-11-10T18:12:51.106Z,68117.78
2022-11-10T18:15:37.201Z,68113.66
2022-11-10T18:18:23.387Z,68100.81
2022-11-10T18:21:10.038Z,68105.91
2022-11-10T18:23:57.095Z,68104.03
2022-11-10T18:26:43.473Z,68106.66
2022-11-10T18:29:29.190Z,68105.34
2022-11-10T18:32:15.227Z,68096.13
2022-11-10T18:35:01.390Z,68096.28
2022-11-10T18:37:47.722Z,68094.22
2022-11-10T18:40:34.184Z,68084.78
2022-11-10T18:43:20.303Z,68087.63
2022-11-10T18:46:06.922Z,68085.34
2022-11-10T18:48:53.008Z,68085.72
2022-11-10T18:51:38.884Z,68086.50
2022-11-10T18:54:25.840Z,68093.84
2022-11-10T18:57:13.376Z,68101.56
2022-11-10T18:59:59.867Z,68090.81
2022-11-10T19:02:46.033Z,68087.63
2022-11-10T19:05:32.048Z,68088.75
2022-11-10T19:08:18.199Z,68084.22
2022-11-10T19:11:13.310Z,68094.41
2022-11-10T19:14:02.597Z,68092.72
2022-11-10T19:16:49.645Z,68102.72
2022-11-10T19:19:37.365Z,68100.44
2022-11-10T19:22:25.228Z,68104.38
2022-11-10T19:25:11.682Z,68093.66
2022-11-10T19:27:59.710Z,68094.97
2022-11-10T19:30:46.009Z,68101.00
2022-11-10T19:33:34.503Z,68092.34
2022-11-10T19:36:23.518Z,68102.13
2022-11-10T19:39:10.180Z,68096.69
2022-11-10T19:41:56.424Z,68093.28
2022-11-10T19:44:43.495Z,68096.84
2022-11-10T19:47:32.313Z,68089.50
2022-11-10T19:50:18.305Z,68098.16
2022-11-10T19:53:04.011Z,68093.66
2022-11-10T19:55:50.074Z,68087.81
2022-11-10T19:58:37.967Z,68100.44
2022-11-10T20:01:24.467Z,68100.44
2022-11-10T20:04:12.518Z,68088.75
2022-11-10T20:07:19.252Z,68085.53
2022-11-10T20:10:06.352Z,68095.16
2022-11-10T20:12:52.511Z,68093.47
2022-11-10T20:15:40.477Z,68093.84
2022-11-10T20:18:26.394Z,68096.69
2022-11-10T20:21:17.924Z,68093.66
2022-11-10T20:24:03.895Z,68091.03
2022-11-10T20:26:50.197Z,68091.19
2022-11-10T20:29:36.484Z,68099.31
2022-11-10T20:32:22.316Z,68102.13
2022-11-10T20:35:09.710Z,68100.81
2022-11-10T20:37:55.786Z,68093.28
2022-11-10T20:41:11.107Z,68090.25
2022-11-10T20:43:57.312Z,68088.56
2022-11-10T20:46:58.607Z,68089.69
2022-11-10T20:49:47.140Z,68082.53
2022-11-10T20:52:38.715Z,68082.34
2022-11-10T20:55:51.739Z,68065.75
2022-11-10T20:58:31.119Z,68062.72
2022-11-10T21:01:17.651Z,68059.13
2022-11-10T21:04:06.021Z,68049.53
2022-11-10T21:06:52.035Z,68059.13
2022-11-10T21:09:37.960Z,68047.66
2022-11-10T21:12:42.826Z,68040.09
2022-11-10T21:15:28.744Z,68037.28
2022-11-10T21:18:14.718Z,68033.31
2022-11-10T21:21:00.862Z,68038.41
2022-11-10T21:23:46.846Z,68043.84
2022-11-10T21:26:44.967Z,68050.66
2022-11-10T21:29:30.909Z,68042.16
2022-11-10T21:32:16.975Z,68052.16
2022-11-10T21:35:02.945Z,68074.03
2022-11-10T21:37:48.770Z,68058.19
2022-11-10T21:40:34.529Z,68051.06
2022-11-10T21:43:20.567Z,68049.53
2022-11-10T21:46:07.366Z,68038.59
2022-11-10T21:48:53.581Z,68052.53
2022-11-10T21:51:39.588Z,68054.81
2022-11-10T21:54:25.507Z,68051.59
2022-11-10T21:57:11.391Z,68039.53
2022-11-10T22:00:00.336Z,68036.13
2022-11-10T22:02:45.898Z,68033.69
2022-11-10T22:05:33.796Z,68026.88
2022-11-10T22:08:21.842Z,68034.06
2022-11-10T22:11:35.507Z,68035.94
2022-11-10T22:14:40.425Z,68031.06
2022-11-10T22:17:44.496Z,68043.31
2022-11-10T22:20:30.528Z,68030.69
2022-11-10T22:23:16.420Z,68039.34
2022-11-10T22:26:02.288Z,68046.88
2022-11-10T22:28:48.515Z,68037.81
2022-11-10T22:31:35.030Z,68028.59
2022-11-10T22:34:21.645Z,68034.06
2022-11-10T22:37:07.798Z,68017.09
2022-11-10T22:40:12.331Z,68012.78
2022-11-10T22:43:17.067Z,68021.81
2022-11-10T22:46:03.317Z,68018.41
2022-11-10T22:48:49.663Z,68027.66
2022-11-10T22:51:37.757Z,68028.59
2022-11-10T22:54:24.303Z,68022.38
2022-11-10T22:57:10.037Z,68013.31
2022-11-10T22:59:55.940Z,68012.19
2022-11-10T23:02:41.634Z,68028.78
2022-11-10T23:05:27.513Z,68028.78
2022-11-10T23:08:13.726Z,68011.25
2022-11-10T23:11:01.172Z,67997.13
2022-11-10T23:13:47.992Z,68024.25
2022-11-10T23:16:35.820Z,68012.94
2022-11-10T23:19:26.448Z,68009.94
2022-11-10T23:22:13.185Z,68006.72
2022-11-10T23:25:00.324Z,68006.53
2022-11-10T23:27:47.261Z,67998.81
2022-11-10T23:30:36.305Z,68012.94
2022-11-10T23:33:26.621Z,68001.28
2022-11-10T23:36:18.718Z,67983.94
2022-11-10T23:39:05.012Z,67987.50
2022-11-10T23:41:50.955Z,68010.69
2022-11-10T23:44:46.101Z,68005.59
2022-11-10T23:47:32.054Z,67995.41
2022-11-10T23:50:18.060Z,68002.59
2022-11-10T23:53:04.189Z,67990.34
2022-11-10T23:56:06.216Z,67989.75
2022-11-10T23:58:52.395Z,67991.47
